sensor_id;sensor_type;location;lat;lon;timestamp;P1;durP1;ratioP1;P2;durP2;ratioP2
26034;SDS011;13809;48.632;11.576;2023-04-15T00:00:26;4.37;;;3.33;;
26034;SDS011;13809;48.632;11.576;2023-04-15T00:05:30;5.00;;;3.27;;
26034;SDS011;13809;48.632;11.576;2023-04-15T00:10:35;3.50;;;3.23;;
26034;SDS011;13809;48.632;11.576;2023-04-15T00:15:38;3.83;;;3.27;;
26034;SDS011;13809;48.632;11.576;2023-04-15T00:20:41;3.80;;;3.50;;
26034;SDS011;13809;48.632;11.576;2023-04-15T00:25:45;3.70;;;3.40;;
26034;SDS011;13809;48.632;11.576;2023-04-15T00:30:48;4.03;;;3.73;;
26034;SDS011;13809;48.632;11.576;2023-04-15T00:35:52;3.63;;;3.33;;
26034;SDS011;13809;48.632;11.576;2023-04-15T00:40:56;4.00;;;3.70;;
26034;SDS011;13809;48.632;11.576;2023-04-15T00:45:59;3.77;;;3.50;;
26034;SDS011;13809;48.632;11.576;2023-04-15T00:51:05;4.27;;;3.87;;
26034;SDS011;13809;48.632;11.576;2023-04-15T00:56:10;3.77;;;3.47;;
26034;SDS011;13809;48.632;11.576;2023-04-15T01:01:13;4.27;;;3.87;;
26034;SDS011;13809;48.632;11.576;2023-04-15T01:06:17;3.87;;;3.57;;
26034;SDS011;13809;48.632;11.576;2023-04-15T01:11:21;3.93;;;3.63;;
26034;SDS011;13809;48.632;11.576;2023-04-15T01:16:25;3.90;;;3.60;;
26034;SDS011;13809;48.632;11.576;2023-04-15T01:21:30;3.87;;;3.50;;
26034;SDS011;13809;48.632;11.576;2023-04-15T01:26:35;4.20;;;3.80;;
26034;SDS011;13809;48.632;11.576;2023-04-15T01:31:38;3.70;;;3.37;;
26034;SDS011;13809;48.632;11.576;2023-04-15T01:36:41;3.87;;;3.57;;
26034;SDS011;13809;48.632;11.576;2023-04-15T01:41:46;4.10;;;3.70;;
26034;SDS011;13809;48.632;11.576;2023-04-15T01:46:49;3.97;;;3.60;;
26034;SDS011;13809;48.632;11.576;2023-04-15T01:51:52;3.73;;;3.53;;
26034;SDS011;13809;48.632;11.576;2023-04-15T01:56:57;3.90;;;3.60;;
26034;SDS011;13809;48.632;11.576;2023-04-15T02:02:00;4.43;;;3.60;;
26034;SDS011;13809;48.632;11.576;2023-04-15T02:07:04;4.23;;;3.93;;
26034;SDS011;13809;48.632;11.576;2023-04-15T02:12:09;4.60;;;4.20;;
26034;SDS011;13809;48.632;11.576;2023-04-15T02:17:12;4.23;;;3.93;;
26034;SDS011;13809;48.632;11.576;2023-04-15T02:22:15;4.40;;;4.10;;
26034;SDS011;13809;48.632;11.576;2023-04-15T02:27:21;4.73;;;4.33;;
26034;SDS011;13809;48.632;11.576;2023-04-15T02:32:24;5.37;;;4.20;;
26034;SDS011;13809;48.632;11.576;2023-04-15T02:37:27;5.07;;;4.67;;
26034;SDS011;13809;48.632;11.576;2023-04-15T02:47:38;5.17;;;4.77;;
26034;SDS011;13809;48.632;11.576;2023-04-15T02:52:42;4.90;;;4.30;;
26034;SDS011;13809;48.632;11.576;2023-04-15T02:57:46;5.80;;;5.20;;
26034;SDS011;13809;48.632;11.576;2023-04-15T03:02:49;5.40;;;4.90;;
26034;SDS011;13809;48.632;11.576;2023-04-15T03:07:57;5.07;;;4.67;;
26034;SDS011;13809;48.632;11.576;2023-04-15T03:13:03;4.97;;;4.47;;
26034;SDS011;13809;48.632;11.576;2023-04-15T03:18:06;5.63;;;5.17;;
26034;SDS011;13809;48.632;11.576;2023-04-15T03:23:09;4.97;;;4.57;;
26034;SDS011;13809;48.632;11.576;2023-04-15T03:28:13;5.50;;;5.00;;
26034;SDS011;13809;48.632;11.576;2023-04-15T03:33:17;5.80;;;5.30;;
26034;SDS011;13809;48.632;11.576;2023-04-15T03:38:21;5.90;;;5.30;;
26034;SDS011;13809;48.632;11.576;2023-04-15T03:43:25;5.97;;;5.47;;
26034;SDS011;13809;48.632;11.576;2023-04-15T03:48:29;5.70;;;5.17;;
26034;SDS011;13809;48.632;11.576;2023-04-15T03:53:32;6.60;;;6.10;;
26034;SDS011;13809;48.632;11.576;2023-04-15T03:58:36;6.33;;;5.80;;
26034;SDS011;13809;48.632;11.576;2023-04-15T04:03:39;5.77;;;5.27;;
26034;SDS011;13809;48.632;11.576;2023-04-15T04:08:43;6.43;;;5.93;;
26034;SDS011;13809;48.632;11.576;2023-04-15T04:13:47;6.10;;;5.60;;
26034;SDS011;13809;48.632;11.576;2023-04-15T04:18:51;6.00;;;5.50;;
26034;SDS011;13809;48.632;11.576;2023-04-15T04:23:54;6.40;;;5.80;;
26034;SDS011;13809;48.632;11.576;2023-04-15T04:29:00;6.47;;;5.97;;
26034;SDS011;13809;48.632;11.576;2023-04-15T04:34:04;6.20;;;5.70;;
26034;SDS011;13809;48.632;11.576;2023-04-15T04:39:07;6.03;;;5.63;;
26034;SDS011;13809;48.632;11.576;2023-04-15T04:44:11;5.80;;;5.40;;
26034;SDS011;13809;48.632;11.576;2023-04-15T04:49:15;6.10;;;5.60;;
26034;SDS011;13809;48.632;11.576;2023-04-15T04:54:18;6.27;;;5.77;;
26034;SDS011;13809;48.632;11.576;2023-04-15T04:59:22;6.17;;;5.70;;
26034;SDS011;13809;48.632;11.576;2023-04-15T05:04:26;6.30;;;5.70;;
26034;SDS011;13809;48.632;11.576;2023-04-15T05:09:29;6.50;;;6.00;;
26034;SDS011;13809;48.632;11.576;2023-04-15T05:14:34;5.70;;;5.30;;
26034;SDS011;13809;48.632;11.576;2023-04-15T05:19:39;5.80;;;5.30;;
26034;SDS011;13809;48.632;11.576;2023-04-15T05:24:42;5.67;;;5.23;;
26034;SDS011;13809;48.632;11.576;2023-04-15T05:29:46;6.13;;;5.63;;
26034;SDS011;13809;48.632;11.576;2023-04-15T05:34:49;6.83;;;5.60;;
26034;SDS011;13809;48.632;11.576;2023-04-15T05:39:53;6.90;;;5.97;;
26034;SDS011;13809;48.632;11.576;2023-04-15T05:44:58;6.00;;;5.50;;
26034;SDS011;13809;48.632;11.576;2023-04-15T05:50:02;7.20;;;6.50;;
26034;SDS011;13809;48.632;11.576;2023-04-15T05:55:05;7.80;;;7.03;;
26034;SDS011;13809;48.632;11.576;2023-04-15T06:00:11;6.37;;;5.43;;
26034;SDS011;13809;48.632;11.576;2023-04-15T06:05:15;5.87;;;5.33;;
26034;SDS011;13809;48.632;11.576;2023-04-15T06:10:18;6.27;;;5.67;;
26034;SDS011;13809;48.632;11.576;2023-04-15T06:15:23;5.37;;;4.97;;
26034;SDS011;13809;48.632;11.576;2023-04-15T06:20:26;5.93;;;5.43;;
26034;SDS011;13809;48.632;11.576;2023-04-15T06:25:29;6.03;;;5.53;;
26034;SDS011;13809;48.632;11.576;2023-04-15T06:30:34;5.50;;;5.10;;
26034;SDS011;13809;48.632;11.576;2023-04-15T06:35:38;6.20;;;5.60;;
26034;SDS011;13809;48.632;11.576;2023-04-15T06:40:41;6.00;;;5.50;;
26034;SDS011;13809;48.632;11.576;2023-04-15T06:45:46;6.40;;;5.90;;
26034;SDS011;13809;48.632;11.576;2023-04-15T06:50:49;6.13;;;5.63;;
26034;SDS011;13809;48.632;11.576;2023-04-15T06:55:53;6.17;;;5.67;;
26034;SDS011;13809;48.632;11.576;2023-04-15T07:00:58;6.73;;;6.00;;
26034;SDS011;13809;48.632;11.576;2023-04-15T07:06:01;5.90;;;5.30;;
26034;SDS011;13809;48.632;11.576;2023-04-15T07:11:07;6.33;;;5.77;;
26034;SDS011;13809;48.632;11.576;2023-04-15T07:16:11;5.77;;;5.27;;
26034;SDS011;13809;48.632;11.576;2023-04-15T07:21:14;5.97;;;5.37;;
26034;SDS011;13809;48.632;11.576;2023-04-15T07:26:18;6.30;;;5.70;;
26034;SDS011;13809;48.632;11.576;2023-04-15T07:31:22;5.70;;;5.20;;
26034;SDS011;13809;48.632;11.576;2023-04-15T07:36:26;5.63;;;5.13;;
26034;SDS011;13809;48.632;11.576;2023-04-15T07:41:29;7.63;;;6.10;;
26034;SDS011;13809;48.632;11.576;2023-04-15T07:46:34;6.30;;;5.70;;
26034;SDS011;13809;48.632;11.576;2023-04-15T07:51:37;7.20;;;6.50;;
26034;SDS011;13809;48.632;11.576;2023-04-15T07:56:41;6.23;;;5.67;;
26034;SDS011;13809;48.632;11.576;2023-04-15T08:01:45;6.00;;;5.50;;
26034;SDS011;13809;48.632;11.576;2023-04-15T08:06:49;12.43;;;11.17;;
26034;SDS011;13809;48.632;11.576;2023-04-15T08:11:52;7.37;;;6.67;;
26034;SDS011;13809;48.632;11.576;2023-04-15T08:16:58;6.50;;;5.90;;
26034;SDS011;13809;48.632;11.576;2023-04-15T08:22:01;7.70;;;7.00;;
26034;SDS011;13809;48.632;11.576;2023-04-15T08:27:04;6.60;;;6.00;;
26034;SDS011;13809;48.632;11.576;2023-04-15T08:32:09;5.80;;;5.30;;
26034;SDS011;13809;48.632;11.576;2023-04-15T08:37:12;5.57;;;5.17;;
26034;SDS011;13809;48.632;11.576;2023-04-15T08:42:16;4.93;;;4.53;;
26034;SDS011;13809;48.632;11.576;2023-04-15T08:47:22;4.93;;;4.53;;
26034;SDS011;13809;48.632;11.576;2023-04-15T08:52:29;5.13;;;4.50;;
26034;SDS011;13809;48.632;11.576;2023-04-15T08:57:32;5.33;;;4.87;;
26034;SDS011;13809;48.632;11.576;2023-04-15T09:02:38;4.97;;;4.57;;
26034;SDS011;13809;48.632;11.576;2023-04-15T09:07:42;5.50;;;4.87;;
26034;SDS011;13809;48.632;11.576;2023-04-15T09:12:45;5.63;;;5.20;;
26034;SDS011;13809;48.632;11.576;2023-04-15T09:17:49;5.40;;;5.00;;
26034;SDS011;13809;48.632;11.576;2023-04-15T09:22:53;5.77;;;5.27;;
26034;SDS011;13809;48.632;11.576;2023-04-15T09:27:56;5.13;;;4.67;;
26034;SDS011;13809;48.632;11.576;2023-04-15T09:33:03;6.00;;;5.27;;
26034;SDS011;13809;48.632;11.576;2023-04-15T09:38:08;5.43;;;4.93;;
26034;SDS011;13809;48.632;11.576;2023-04-15T09:43:13;5.27;;;4.87;;
26034;SDS011;13809;48.632;11.576;2023-04-15T09:48:20;5.30;;;4.90;;
26034;SDS011;13809;48.632;11.576;2023-04-15T09:53:25;5.93;;;5.43;;
26034;SDS011;13809;48.632;11.576;2023-04-15T09:58:32;5.40;;;5.00;;
26034;SDS011;13809;48.632;11.576;2023-04-15T10:03:40;4.90;;;4.40;;
26034;SDS011;13809;48.632;11.576;2023-04-15T10:08:45;5.37;;;4.97;;
26034;SDS011;13809;48.632;11.576;2023-04-15T10:13:50;5.70;;;5.03;;
26034;SDS011;13809;48.632;11.576;2023-04-15T10:18:56;5.30;;;4.90;;
26034;SDS011;13809;48.632;11.576;2023-04-15T10:24:02;5.60;;;5.10;;
26034;SDS011;13809;48.632;11.576;2023-04-15T10:29:06;5.17;;;4.77;;
26034;SDS011;13809;48.632;11.576;2023-04-15T10:34:12;5.57;;;5.17;;
26034;SDS011;13809;48.632;11.576;2023-04-15T10:39:37;5.40;;;4.90;;
26034;SDS011;13809;48.632;11.576;2023-04-15T10:44:42;7.97;;;5.80;;
26034;SDS011;13809;48.632;11.576;2023-04-15T10:49:48;5.50;;;5.00;;
26034;SDS011;13809;48.632;11.576;2023-04-15T10:55:00;4.90;;;4.40;;
26034;SDS011;13809;48.632;11.576;2023-04-15T11:00:11;4.27;;;3.43;;
26034;SDS011;13809;48.632;11.576;2023-04-15T11:05:18;3.33;;;3.03;;
26034;SDS011;13809;48.632;11.576;2023-04-15T11:16:00;2.60;;;2.40;;
26034;SDS011;13809;48.632;11.576;2023-04-15T11:21:06;4.13;;;2.40;;
26034;SDS011;13809;48.632;11.576;2023-04-15T11:26:10;2.50;;;2.30;;
26034;SDS011;13809;48.632;11.576;2023-04-15T11:31:14;2.40;;;2.20;;
26034;SDS011;13809;48.632;11.576;2023-04-15T11:36:23;2.40;;;2.13;;
26034;SDS011;13809;48.632;11.576;2023-04-15T11:41:28;2.33;;;2.10;;
26034;SDS011;13809;48.632;11.576;2023-04-15T11:46:32;2.50;;;2.30;;
26034;SDS011;13809;48.632;11.576;2023-04-15T11:51:36;2.20;;;2.00;;
26034;SDS011;13809;48.632;11.576;2023-04-15T11:56:40;2.37;;;2.10;;
26034;SDS011;13809;48.632;11.576;2023-04-15T12:01:51;2.53;;;2.33;;
26034;SDS011;13809;48.632;11.576;2023-04-15T12:06:56;2.60;;;2.40;;
26034;SDS011;13809;48.632;11.576;2023-04-15T12:12:06;2.67;;;2.47;;
26034;SDS011;13809;48.632;11.576;2023-04-15T12:17:12;2.40;;;2.30;;
26034;SDS011;13809;48.632;11.576;2023-04-15T12:22:17;3.77;;;2.17;;
26034;SDS011;13809;48.632;11.576;2023-04-15T12:27:24;2.83;;;2.53;;
26034;SDS011;13809;48.632;11.576;2023-04-15T12:32:30;2.50;;;2.30;;
26034;SDS011;13809;48.632;11.576;2023-04-15T12:37:38;2.20;;;2.10;;
26034;SDS011;13809;48.632;11.576;2023-04-15T12:42:42;2.77;;;2.50;;
26034;SDS011;13809;48.632;11.576;2023-04-15T12:47:45;3.10;;;2.23;;
26034;SDS011;13809;48.632;11.576;2023-04-15T12:52:50;2.67;;;2.13;;
26034;SDS011;13809;48.632;11.576;2023-04-15T12:57:53;2.23;;;2.00;;
26034;SDS011;13809;48.632;11.576;2023-04-15T13:02:56;2.40;;;2.20;;
26034;SDS011;13809;48.632;11.576;2023-04-15T13:08:01;2.40;;;2.20;;
26034;SDS011;13809;48.632;11.576;2023-04-15T13:13:05;2.60;;;2.40;;
26034;SDS011;13809;48.632;11.576;2023-04-15T13:18:09;2.77;;;2.20;;
26034;SDS011;13809;48.632;11.576;2023-04-15T13:23:13;3.23;;;2.90;;
26034;SDS011;13809;48.632;11.576;2023-04-15T13:28:19;2.70;;;2.50;;
26034;SDS011;13809;48.632;11.576;2023-04-15T13:33:22;2.80;;;2.60;;
26034;SDS011;13809;48.632;11.576;2023-04-15T13:38:27;3.00;;;2.80;;
26034;SDS011;13809;48.632;11.576;2023-04-15T13:43:31;3.10;;;2.90;;
26034;SDS011;13809;48.632;11.576;2023-04-15T13:48:34;2.90;;;2.70;;
26034;SDS011;13809;48.632;11.576;2023-04-15T13:53:39;2.80;;;2.60;;
26034;SDS011;13809;48.632;11.576;2023-04-15T13:58:42;2.70;;;2.50;;
26034;SDS011;13809;48.632;11.576;2023-04-15T14:03:45;2.20;;;2.00;;
26034;SDS011;13809;48.632;11.576;2023-04-15T14:08:50;2.83;;;2.00;;
26034;SDS011;13809;48.632;11.576;2023-04-15T14:13:55;2.63;;;1.93;;
26034;SDS011;13809;48.632;11.576;2023-04-15T14:19:00;3.80;;;2.00;;
26034;SDS011;13809;48.632;11.576;2023-04-15T14:24:06;3.83;;;2.00;;
26034;SDS011;13809;48.632;11.576;2023-04-15T14:29:09;3.73;;;1.90;;
26034;SDS011;13809;48.632;11.576;2023-04-15T14:34:12;2.10;;;2.00;;
26034;SDS011;13809;48.632;11.576;2023-04-15T14:39:17;2.17;;;2.00;;
26034;SDS011;13809;48.632;11.576;2023-04-15T14:44:20;2.10;;;2.00;;
26034;SDS011;13809;48.632;11.576;2023-04-15T14:49:24;2.20;;;2.00;;
26034;SDS011;13809;48.632;11.576;2023-04-15T14:54:29;2.37;;;2.17;;
26034;SDS011;13809;48.632;11.576;2023-04-15T14:59:32;2.40;;;2.20;;
26034;SDS011;13809;48.632;11.576;2023-04-15T15:04:35;2.07;;;1.90;;
26034;SDS011;13809;48.632;11.576;2023-04-15T15:09:40;1.97;;;1.83;;
26034;SDS011;13809;48.632;11.576;2023-04-15T15:14:43;1.97;;;1.83;;
26034;SDS011;13809;48.632;11.576;2023-04-15T15:19:46;2.43;;;2.20;;
26034;SDS011;13809;48.632;11.576;2023-04-15T15:24:51;2.40;;;2.20;;
26034;SDS011;13809;48.632;11.576;2023-04-15T15:29:54;2.43;;;1.90;;
26034;SDS011;13809;48.632;11.576;2023-04-15T15:34:58;7.60;;;2.20;;
26034;SDS011;13809;48.632;11.576;2023-04-15T15:40:03;2.00;;;1.80;;
26034;SDS011;13809;48.632;11.576;2023-04-15T15:45:07;1.67;;;1.57;;
26034;SDS011;13809;48.632;11.576;2023-04-15T15:50:11;2.20;;;2.10;;
26034;SDS011;13809;48.632;11.576;2023-04-15T15:55:16;2.57;;;2.37;;
26034;SDS011;13809;48.632;11.576;2023-04-15T16:00:20;3.20;;;2.70;;
26034;SDS011;13809;48.632;11.576;2023-04-15T16:05:23;3.10;;;2.80;;
26034;SDS011;13809;48.632;11.576;2023-04-15T16:10:28;2.87;;;2.67;;
26034;SDS011;13809;48.632;11.576;2023-04-15T16:15:31;2.70;;;2.50;;
26034;SDS011;13809;48.632;11.576;2023-04-15T16:20:36;2.90;;;2.70;;
26034;SDS011;13809;48.632;11.576;2023-04-15T16:25:41;3.63;;;2.80;;
26034;SDS011;13809;48.632;11.576;2023-04-15T16:30:45;3.40;;;3.10;;
26034;SDS011;13809;48.632;11.576;2023-04-15T16:35:48;3.37;;;3.10;;
26034;SDS011;13809;48.632;11.576;2023-04-15T16:40:53;3.10;;;2.90;;
26034;SDS011;13809;48.632;11.576;2023-04-15T16:45:59;2.77;;;2.57;;
26034;SDS011;13809;48.632;11.576;2023-04-15T16:51:02;2.97;;;2.77;;
26034;SDS011;13809;48.632;11.576;2023-04-15T16:56:07;4.00;;;3.70;;
26034;SDS011;13809;48.632;11.576;2023-04-15T17:01:10;4.10;;;3.70;;
26034;SDS011;13809;48.632;11.576;2023-04-15T17:06:13;3.23;;;2.93;;
26034;SDS011;13809;48.632;11.576;2023-04-15T17:11:18;3.07;;;2.60;;
26034;SDS011;13809;48.632;11.576;2023-04-15T17:16:21;2.93;;;2.50;;
26034;SDS011;13809;48.632;11.576;2023-04-15T17:21:24;2.80;;;2.60;;
26034;SDS011;13809;48.632;11.576;2023-04-15T17:26:29;2.77;;;2.57;;
26034;SDS011;13809;48.632;11.576;2023-04-15T17:31:33;2.67;;;2.47;;
26034;SDS011;13809;48.632;11.576;2023-04-15T17:36:36;2.20;;;2.10;;
26034;SDS011;13809;48.632;11.576;2023-04-15T17:41:40;2.67;;;2.47;;
26034;SDS011;13809;48.632;11.576;2023-04-15T17:46:44;2.50;;;2.30;;
26034;SDS011;13809;48.632;11.576;2023-04-15T17:51:48;2.47;;;2.30;;
26034;SDS011;13809;48.632;11.576;2023-04-15T17:56:53;4.10;;;3.80;;
26034;SDS011;13809;48.632;11.576;2023-04-15T18:01:57;3.17;;;2.97;;
26034;SDS011;13809;48.632;11.576;2023-04-15T18:07:00;3.37;;;3.17;;
26034;SDS011;13809;48.632;11.576;2023-04-15T18:12:05;2.80;;;2.60;;
26034;SDS011;13809;48.632;11.576;2023-04-15T18:17:09;6.37;;;4.03;;
26034;SDS011;13809;48.632;11.576;2023-04-15T18:22:13;5.53;;;5.00;;
26034;SDS011;13809;48.632;11.576;2023-04-15T18:27:18;3.90;;;3.43;;
26034;SDS011;13809;48.632;11.576;2023-04-15T18:32:21;4.40;;;4.00;;
26034;SDS011;13809;48.632;11.576;2023-04-15T18:37:25;8.57;;;7.03;;
26034;SDS011;13809;48.632;11.576;2023-04-15T18:42:31;12.20;;;9.07;;
26034;SDS011;13809;48.632;11.576;2023-04-15T18:47:34;14.40;;;9.90;;
26034;SDS011;13809;48.632;11.576;2023-04-15T18:52:37;5.33;;;4.67;;
26034;SDS011;13809;48.632;11.576;2023-04-15T18:57:42;3.87;;;3.50;;
26034;SDS011;13809;48.632;11.576;2023-04-15T19:02:48;3.30;;;3.00;;
26034;SDS011;13809;48.632;11.576;2023-04-15T19:07:52;2.70;;;2.50;;
26034;SDS011;13809;48.632;11.576;2023-04-15T19:12:57;3.60;;;3.30;;
26034;SDS011;13809;48.632;11.576;2023-04-15T19:18:00;3.00;;;2.80;;
26034;SDS011;13809;48.632;11.576;2023-04-15T19:23:05;2.67;;;2.47;;
26034;SDS011;13809;48.632;11.576;2023-04-15T19:28:10;4.07;;;3.40;;
26034;SDS011;13809;48.632;11.576;2023-04-15T19:33:13;2.70;;;2.50;;
26034;SDS011;13809;48.632;11.576;2023-04-15T19:38:17;3.43;;;3.23;;
26034;SDS011;13809;48.632;11.576;2023-04-15T19:43:22;4.50;;;4.10;;
26034;SDS011;13809;48.632;11.576;2023-04-15T19:48:25;3.80;;;3.50;;
26034;SDS011;13809;48.632;11.576;2023-04-15T19:53:28;2.83;;;2.63;;
26034;SDS011;13809;48.632;11.576;2023-04-15T19:58:33;3.23;;;3.00;;
26034;SDS011;13809;48.632;11.576;2023-04-15T20:03:36;3.17;;;2.97;;
26034;SDS011;13809;48.632;11.576;2023-04-15T20:08:39;2.53;;;2.33;;
26034;SDS011;13809;48.632;11.576;2023-04-15T20:13:44;2.60;;;2.10;;
26034;SDS011;13809;48.632;11.576;2023-04-15T20:18:47;2.33;;;2.10;;
26034;SDS011;13809;48.632;11.576;2023-04-15T20:23:50;1.93;;;1.83;;
26034;SDS011;13809;48.632;11.576;2023-04-15T20:28:55;2.00;;;1.90;;
26034;SDS011;13809;48.632;11.576;2023-04-15T20:34:00;1.97;;;1.87;;
26034;SDS011;13809;48.632;11.576;2023-04-15T20:39:03;2.43;;;2.27;;
26034;SDS011;13809;48.632;11.576;2023-04-15T20:44:08;2.40;;;2.23;;
26034;SDS011;13809;48.632;11.576;2023-04-15T20:49:11;1.90;;;1.80;;
26034;SDS011;13809;48.632;11.576;2023-04-15T20:54:14;2.70;;;2.23;;
26034;SDS011;13809;48.632;11.576;2023-04-15T20:59:21;2.50;;;2.40;;
26034;SDS011;13809;48.632;11.576;2023-04-15T21:04:24;3.40;;;3.20;;
26034;SDS011;13809;48.632;11.576;2023-04-15T21:09:27;2.30;;;2.20;;
26034;SDS011;13809;48.632;11.576;2023-04-15T21:14:32;2.40;;;2.30;;
26034;SDS011;13809;48.632;11.576;2023-04-15T21:19:36;2.20;;;2.00;;
26034;SDS011;13809;48.632;11.576;2023-04-15T21:24:40;2.63;;;2.50;;
26034;SDS011;13809;48.632;11.576;2023-04-15T21:29:45;2.60;;;2.40;;
26034;SDS011;13809;48.632;11.576;2023-04-15T21:34:48;2.70;;;2.50;;
26034;SDS011;13809;48.632;11.576;2023-04-15T21:39:51;2.43;;;2.33;;
26034;SDS011;13809;48.632;11.576;2023-04-15T21:44:55;2.23;;;2.13;;
26034;SDS011;13809;48.632;11.576;2023-04-15T21:49:59;2.20;;;2.10;;
26034;SDS011;13809;48.632;11.576;2023-04-15T21:55:02;2.50;;;2.30;;
26034;SDS011;13809;48.632;11.576;2023-04-15T22:00:08;2.63;;;2.43;;
26034;SDS011;13809;48.632;11.576;2023-04-15T22:05:11;2.50;;;2.30;;
26034;SDS011;13809;48.632;11.576;2023-04-15T22:10:15;2.50;;;2.30;;
26034;SDS011;13809;48.632;11.576;2023-04-15T22:15:19;2.00;;;1.90;;
26034;SDS011;13809;48.632;11.576;2023-04-15T22:20:22;2.33;;;2.23;;
26034;SDS011;13809;48.632;11.576;2023-04-15T22:25:26;2.37;;;2.20;;
26034;SDS011;13809;48.632;11.576;2023-04-15T22:30:31;2.90;;;2.43;;
26034;SDS011;13809;48.632;11.576;2023-04-15T22:35:34;2.87;;;2.10;;
26034;SDS011;13809;48.632;11.576;2023-04-15T22:40:39;2.63;;;2.43;;
26034;SDS011;13809;48.632;11.576;2023-04-15T22:45:47;2.50;;;2.40;;
26034;SDS011;13809;48.632;11.576;2023-04-15T22:50:51;2.60;;;2.40;;
26034;SDS011;13809;48.632;11.576;2023-04-15T22:55:54;2.77;;;2.57;;
26034;SDS011;13809;48.632;11.576;2023-04-15T23:00:59;2.73;;;2.53;;
26034;SDS011;13809;48.632;11.576;2023-04-15T23:06:02;2.50;;;2.40;;
26034;SDS011;13809;48.632;11.576;2023-04-15T23:11:06;2.43;;;2.33;;
26034;SDS011;13809;48.632;11.576;2023-04-15T23:16:11;2.80;;;2.60;;
26034;SDS011;13809;48.632;11.576;2023-04-15T23:21:14;2.67;;;2.57;;
26034;SDS011;13809;48.632;11.576;2023-04-15T23:26:17;2.80;;;2.70;;
26034;SDS011;13809;48.632;11.576;2023-04-15T23:31:22;3.17;;;2.97;;
26034;SDS011;13809;48.632;11.576;2023-04-15T23:36:25;2.90;;;2.70;;
26034;SDS011;13809;48.632;11.576;2023-04-15T23:41:28;2.83;;;2.63;;
26034;SDS011;13809;48.632;11.576;2023-04-15T23:46:33;2.57;;;2.47;;
26034;SDS011;13809;48.632;11.576;2023-04-15T23:51:36;2.83;;;2.57;;
26034;SDS011;13809;48.632;11.576;2023-04-15T23:56:39;3.00;;;2.77;;
